createdAt,value
2019-02-23T00:04:30.560Z,0.63
2019-02-23T00:06:59.014Z,0.67
2019-02-23T00:09:27.470Z,0.70
2019-02-23T00:11:55.863Z,0.67
2019-02-23T00:14:24.596Z,0.62
2019-02-23T00:16:53.484Z,0.62
2019-02-23T00:19:25.161Z,0.59
2019-02-23T00:21:52.203Z,0.55
2019-02-23T00:24:20.568Z,0.54
2019-02-23T00:26:49.365Z,0.54
2019-02-23T00:29:17.812Z,0.50
2019-02-23T00:31:46.289Z,0.49
2019-02-23T00:34:15.013Z,0.39
2019-02-23T00:36:43.544Z,0.41
2019-02-23T00:39:12.024Z,0.45
2019-02-23T00:41:40.382Z,0.51
2019-02-23T00:44:08.853Z,0.52
2019-02-23T00:46:37.310Z,0.58
2019-02-23T00:49:05.767Z,0.57
2019-02-23T00:51:34.365Z,0.50
2019-02-23T00:54:02.772Z,0.49
2019-02-23T00:56:31.555Z,0.45
2019-02-23T00:58:59.976Z,0.43
2019-02-23T01:01:28.395Z,0.47
2019-02-23T01:03:57.206Z,0.51
2019-02-23T01:06:25.763Z,0.56
2019-02-23T01:08:54.286Z,0.58
2019-02-23T01:11:22.653Z,0.46
2019-02-23T01:13:51.443Z,0.35
2019-02-23T01:16:20.134Z,0.36
2019-02-23T01:18:49.023Z,0.33
2019-02-23T01:21:17.815Z,0.30
2019-02-23T01:23:46.504Z,0.29
2019-02-23T01:26:14.983Z,0.21
2019-02-23T01:28:43.448Z,0.11
2019-02-23T01:31:12.161Z,0.13
2019-02-23T01:33:40.675Z,0.08
2019-02-23T01:36:09.173Z,0.00
2019-02-23T01:38:37.631Z,-0.02
2019-02-23T01:41:06.093Z,0.05
2019-02-23T01:43:34.572Z,0.06
2019-02-23T01:46:03.092Z,-0.11
2019-02-23T01:48:31.728Z,-0.19
2019-02-23T01:51:00.424Z,-0.29
2019-02-23T01:53:28.988Z,-0.19
2019-02-23T01:55:57.803Z,-0.22
2019-02-23T01:58:26.306Z,-0.24
2019-02-23T02:00:54.796Z,-0.22
2019-02-23T02:03:23.341Z,-0.39
2019-02-23T02:05:52.239Z,-0.32
2019-02-23T02:08:20.620Z,-0.40
2019-02-23T02:10:49.073Z,-0.36
2019-02-23T02:13:17.890Z,-0.45
2019-02-23T02:15:46.789Z,-0.54
2019-02-23T02:18:15.156Z,-0.54
2019-02-23T02:20:43.583Z,-0.61
2019-02-23T02:23:12.030Z,-0.61
2019-02-23T02:25:40.553Z,-0.52
2019-02-23T02:28:09.412Z,-0.45
2019-02-23T02:30:38.188Z,-0.55
2019-02-23T02:33:06.713Z,-0.52
2019-02-23T02:35:35.174Z,-0.63
2019-02-23T02:38:03.655Z,-0.65
2019-02-23T02:40:32.032Z,-0.74
2019-02-23T02:43:00.651Z,-0.76
2019-02-23T02:45:29.046Z,-0.80
2019-02-23T02:47:57.457Z,-0.80
2019-02-23T02:50:25.911Z,-0.81
2019-02-23T02:52:54.316Z,-0.76
2019-02-23T02:55:22.779Z,-0.74
2019-02-23T02:57:51.154Z,-0.72
2019-02-23T03:00:19.710Z,-0.74
2019-02-23T03:02:48.225Z,-0.81
2019-02-23T03:05:16.680Z,-0.72
2019-02-23T03:07:45.225Z,-0.82
2019-02-23T03:10:53.637Z,-0.76
2019-02-23T03:13:22.157Z,-0.81
2019-02-23T03:15:50.611Z,-0.75
2019-02-23T03:18:18.982Z,-0.83
2019-02-23T03:20:47.776Z,-0.77
2019-02-23T03:23:16.205Z,-0.80
2019-02-23T03:25:44.588Z,-0.79
2019-02-23T03:28:13.085Z,-0.85
2019-02-23T03:30:41.631Z,-0.84
2019-02-23T03:33:10.169Z,-0.85
2019-02-23T03:35:38.771Z,-0.85
2019-02-23T03:38:07.247Z,-0.86
2019-02-23T03:40:35.718Z,-0.87
2019-02-23T03:43:04.213Z,-0.88
2019-02-23T03:45:32.584Z,-0.85
2019-02-23T03:48:01.054Z,-0.85
2019-02-23T03:50:29.582Z,-0.84
2019-02-23T03:52:58.179Z,-0.81
2019-02-23T03:55:26.824Z,-0.78
2019-02-23T03:57:55.255Z,-0.81
2019-02-23T04:00:23.677Z,-0.77
2019-02-23T04:02:52.124Z,-0.77
2019-02-23T04:05:21.178Z,-0.86
2019-02-23T04:07:49.589Z,-1.02
2019-02-23T04:10:18.040Z,-1.13
2019-02-23T04:12:46.441Z,-1.06
2019-02-23T04:15:14.886Z,-1.03
2019-02-23T04:17:43.269Z,-1.10
2019-02-23T04:20:11.892Z,-1.10
2019-02-23T04:22:40.313Z,-1.11
2019-02-23T04:25:48.732Z,-1.01
2019-02-23T04:28:17.559Z,-1.10
2019-02-23T04:30:46.050Z,-1.09
2019-02-23T04:33:14.822Z,-1.09
2019-02-23T04:35:43.379Z,-0.95
2019-02-23T04:38:11.926Z,-0.87
2019-02-23T04:40:40.438Z,-0.77
2019-02-23T04:43:09.168Z,-0.69
2019-02-23T04:45:37.703Z,-0.67
2019-02-23T04:48:06.107Z,-0.66
2019-02-23T04:50:34.555Z,-0.65
2019-02-23T04:53:02.926Z,-0.63
2019-02-23T04:55:31.342Z,-0.60
2019-02-23T04:57:59.770Z,-0.63
2019-02-23T05:00:28.542Z,-0.70
2019-02-23T05:02:56.957Z,-0.66
2019-02-23T05:05:25.612Z,-0.73
2019-02-23T05:07:54.108Z,-0.82
2019-02-23T05:10:22.603Z,-0.89
2019-02-23T05:12:51.018Z,-0.94
2019-02-23T05:15:19.850Z,-0.91
2019-02-23T05:17:48.321Z,-0.87
2019-02-23T05:20:17.021Z,-0.83
2019-02-23T05:23:04.829Z,-0.91
2019-02-23T05:25:33.274Z,-0.92
2019-02-23T05:28:01.736Z,-0.94
2019-02-23T05:30:30.197Z,-0.94
2019-02-23T05:32:58.566Z,-0.90
2019-02-23T05:35:27.095Z,-0.91
2019-02-23T05:37:55.635Z,-0.90
2019-02-23T05:40:24.576Z,-0.97
2019-02-23T05:43:01.001Z,-1.05
2019-02-23T05:45:23.276Z,-1.00
2019-02-23T05:47:51.746Z,-0.97
2019-02-23T05:50:20.249Z,-1.03
2019-02-23T05:52:49.000Z,-1.01
2019-02-23T05:55:17.715Z,-0.96
2019-02-23T05:57:46.111Z,-0.97
2019-02-23T06:00:54.540Z,-1.02
2019-02-23T06:03:23.084Z,-1.07
2019-02-23T06:05:51.523Z,-1.03
2019-02-23T06:08:20.367Z,-0.98
2019-02-23T06:10:49.053Z,-0.99
2019-02-23T06:13:17.591Z,-0.96
2019-02-23T06:15:46.000Z,-0.94
2019-02-23T06:18:14.409Z,-1.00
2019-02-23T06:20:42.825Z,-1.02
2019-02-23T06:23:11.390Z,-1.07
2019-02-23T06:25:39.793Z,-1.02
2019-02-23T06:28:08.212Z,-1.00
2019-02-23T06:30:36.672Z,-0.97
2019-02-23T06:33:05.480Z,-0.91
2019-02-23T06:35:34.021Z,-0.88
2019-02-23T06:38:02.494Z,-0.88
2019-02-23T06:40:31.121Z,-0.84
2019-02-23T06:42:59.664Z,-0.81
2019-02-23T06:45:28.453Z,-0.74
2019-02-23T06:47:56.859Z,-0.70
2019-02-23T06:53:00.023Z,-0.73
2019-02-23T06:55:28.507Z,-0.73
2019-02-23T06:57:57.626Z,-0.74
2019-02-23T07:00:26.485Z,-0.87
2019-02-23T07:02:55.215Z,-0.75
2019-02-23T07:05:23.764Z,-0.80
2019-02-23T07:07:52.518Z,-0.69
2019-02-23T07:10:21.033Z,-0.67
2019-02-23T07:12:49.562Z,-0.85
2019-02-23T07:15:18.064Z,-0.83
2019-02-23T07:17:46.523Z,-0.71
2019-02-23T07:20:14.989Z,-0.66
2019-02-23T07:22:43.391Z,-0.70
2019-02-23T07:25:11.929Z,-0.66
2019-02-23T07:27:40.434Z,-0.61
2019-02-23T07:30:28.215Z,-0.55
2019-02-23T07:32:56.809Z,-0.50
2019-02-23T07:35:25.237Z,-0.57
2019-02-23T07:37:53.716Z,-0.51
2019-02-23T07:40:22.201Z,-0.43
2019-02-23T07:42:50.587Z,-0.47
2019-02-23T07:45:19.123Z,-0.64
2019-02-23T07:47:47.503Z,-0.72
2019-02-23T07:50:55.958Z,-0.84
2019-02-23T07:53:24.391Z,-0.79
2019-02-23T07:55:52.933Z,-0.65
2019-02-23T07:58:21.454Z,-0.60
2019-02-23T08:00:50.202Z,-0.56
2019-02-23T08:03:18.720Z,-0.67
2019-02-23T08:05:47.255Z,-0.63
2019-02-23T08:08:15.725Z,-0.59
2019-02-23T08:10:44.236Z,-0.50
2019-02-23T08:13:12.688Z,-0.48
2019-02-23T08:15:41.220Z,-0.37
2019-02-23T08:18:09.790Z,-0.35
2019-02-23T08:20:38.383Z,-0.42
2019-02-23T08:23:06.847Z,-0.36
2019-02-23T08:25:35.360Z,-0.34
2019-02-23T08:28:03.932Z,-0.22
2019-02-23T08:30:32.748Z,-0.35
2019-02-23T08:33:01.219Z,-0.23
2019-02-23T08:35:29.784Z,-0.27
2019-02-23T08:37:58.322Z,-0.09
2019-02-23T08:40:26.809Z,-0.10
2019-02-23T08:42:55.302Z,-0.09
2019-02-23T08:45:23.889Z,-0.09
2019-02-23T08:47:52.492Z,0.08
2019-02-23T08:50:21.023Z,0.27
2019-02-23T08:52:50.475Z,0.33
2019-02-23T08:55:19.795Z,0.54
2019-02-23T08:57:48.347Z,0.64
2019-02-23T09:00:56.774Z,0.71
2019-02-23T09:03:25.670Z,0.70
2019-02-23T09:08:45.500Z,0.95
2019-02-23T09:11:14.046Z,1.08
2019-02-23T09:13:43.388Z,1.10
2019-02-23T09:16:12.437Z,1.21
2019-02-23T09:18:41.142Z,1.31
2019-02-23T09:21:09.918Z,1.39
2019-02-23T09:24:18.523Z,1.49
2019-02-23T09:26:47.398Z,1.64
2019-02-23T09:29:16.182Z,1.64
2019-02-23T09:31:44.846Z,1.70
2019-02-23T09:34:13.403Z,1.91
2019-02-23T09:36:41.990Z,1.89
2019-02-23T09:39:10.935Z,2.00
2019-02-23T09:41:39.343Z,2.13
2019-02-23T09:44:07.917Z,2.17
2019-02-23T09:46:36.320Z,2.05
2019-02-23T09:49:04.871Z,2.13
2019-02-23T09:51:33.403Z,2.10
2019-02-23T09:54:02.065Z,2.28
2019-02-23T09:56:30.542Z,2.29
2019-02-23T09:58:58.943Z,2.34
2019-02-23T10:01:27.683Z,2.51
2019-02-23T10:03:56.169Z,2.65
2019-02-23T10:06:24.662Z,2.72
2019-02-23T10:08:53.034Z,2.89
2019-02-23T10:11:21.522Z,2.93
2019-02-23T10:13:49.980Z,3.18
2019-02-23T10:16:18.619Z,2.93
2019-02-23T10:18:47.140Z,2.77
2019-02-23T10:21:15.731Z,2.89
2019-02-23T10:23:44.340Z,3.07
2019-02-23T10:26:32.253Z,3.30
2019-02-23T10:29:00.947Z,3.41
2019-02-23T10:31:29.515Z,3.53
2019-02-23T10:33:57.970Z,3.29
2019-02-23T10:36:26.492Z,3.23
2019-02-23T10:38:55.228Z,3.55
2019-02-23T10:41:23.827Z,3.59
2019-02-23T10:43:52.365Z,3.69
2019-02-23T10:46:21.154Z,3.94
2019-02-23T10:48:49.571Z,3.74
2019-02-23T10:51:18.281Z,3.75
2019-02-23T10:53:46.812Z,3.90
2019-02-23T10:56:15.200Z,4.11
2019-02-23T10:58:43.686Z,4.30
2019-02-23T11:01:12.130Z,4.47
2019-02-23T11:03:40.885Z,4.56
2019-02-23T11:06:09.836Z,4.56
2019-02-23T11:08:38.268Z,4.81
2019-02-23T11:16:28.241Z,5.14
2019-02-23T11:18:56.742Z,5.01
2019-02-23T11:21:25.612Z,4.86
2019-02-23T11:23:54.172Z,4.84
2019-02-23T11:26:22.987Z,4.86
2019-02-23T11:31:38.906Z,4.75
2019-02-23T11:34:07.539Z,4.54
2019-02-23T11:36:36.178Z,4.44
2019-02-23T11:39:44.611Z,4.12
2019-02-23T11:42:13.019Z,4.18
2019-02-23T11:44:41.574Z,4.18
2019-02-23T11:47:10.054Z,4.48
2019-02-23T11:49:38.680Z,4.75
2019-02-23T11:52:07.121Z,4.75
2019-02-23T11:54:35.581Z,4.76
2019-02-23T11:57:04.038Z,4.57
2019-02-23T11:59:32.460Z,4.58
2019-02-23T12:02:00.994Z,4.51
2019-02-23T12:04:29.483Z,4.97
2019-02-23T12:06:58.054Z,5.02
2019-02-23T12:09:26.545Z,5.15
2019-02-23T12:11:55.208Z,4.84
2019-02-23T12:14:25.852Z,5.03
2019-02-23T12:17:13.120Z,5.07
2019-02-23T12:19:41.633Z,4.97
2019-02-23T12:22:12.637Z,5.19
2019-02-23T12:24:40.298Z,5.52
2019-02-23T12:27:08.787Z,5.63
2019-02-23T12:29:37.345Z,5.94
2019-02-23T12:32:05.820Z,5.97
2019-02-23T12:34:34.334Z,6.02
2019-02-23T12:37:03.070Z,6.24
2019-02-23T12:39:31.717Z,6.27
2019-02-23T12:42:00.311Z,6.30
2019-02-23T12:44:31.312Z,6.40
2019-02-23T12:46:59.767Z,6.41
2019-02-23T12:49:28.618Z,6.47
2019-02-23T12:51:57.331Z,6.30
2019-02-23T12:54:26.282Z,6.49
2019-02-23T12:59:42.189Z,6.21
2019-02-23T13:04:59.758Z,6.13
2019-02-23T13:07:28.133Z,6.06
2019-02-23T13:09:56.693Z,6.01
2019-02-23T13:13:03.995Z,6.06
2019-02-23T13:16:12.435Z,5.93
2019-02-23T13:19:19.613Z,6.13
2019-02-23T13:25:44.788Z,6.42
2019-02-23T13:28:53.278Z,6.31
2019-02-23T13:32:00.762Z,6.40
2019-02-23T13:35:07.946Z,6.33
2019-02-23T13:38:16.510Z,6.36
2019-02-23T13:41:24.986Z,6.44
2019-02-23T13:44:36.673Z,6.37
2019-02-23T13:47:43.881Z,6.28
2019-02-23T13:50:51.078Z,6.24
2019-02-23T13:53:59.571Z,6.23
2019-02-23T13:57:07.016Z,6.25
2019-02-23T14:00:14.247Z,6.28
2019-02-23T14:03:21.442Z,6.18
2019-02-23T14:06:28.896Z,6.12
2019-02-23T14:09:36.109Z,5.96
2019-02-23T14:12:44.637Z,5.78
2019-02-23T14:15:53.138Z,5.67
2019-02-23T14:19:00.378Z,5.72
2019-02-23T14:22:07.558Z,5.62
2019-02-23T14:25:14.733Z,5.62
2019-02-23T14:28:22.123Z,5.50
2019-02-23T14:31:11.754Z,5.52
2019-02-23T14:34:18.988Z,5.48
2019-02-23T14:37:27.433Z,5.34
2019-02-23T14:40:34.726Z,5.77
2019-02-23T14:43:41.923Z,6.93
2019-02-23T14:46:49.347Z,8.29
2019-02-23T14:49:56.543Z,9.00
2019-02-23T14:53:03.955Z,9.61
2019-02-23T14:56:11.127Z,10.04
2019-02-23T14:59:19.589Z,9.48
2019-02-23T15:02:26.766Z,8.65
2019-02-23T15:05:35.201Z,7.47
2019-02-23T15:08:43.708Z,6.91
2019-02-23T15:11:52.240Z,6.45
2019-02-23T15:14:59.350Z,6.20
2019-02-23T15:18:06.554Z,6.02
2019-02-23T15:21:15.055Z,5.67
2019-02-23T15:24:23.497Z,5.44
2019-02-23T15:27:30.680Z,5.35
2019-02-23T15:30:39.175Z,5.23
2019-02-23T15:33:46.374Z,5.05
2019-02-23T15:37:00.575Z,5.04
2019-02-23T15:40:02.637Z,4.89
2019-02-23T15:43:09.812Z,4.83
2019-02-23T15:46:17.255Z,4.83
2019-02-23T15:49:24.455Z,4.73
2019-02-23T15:51:53.004Z,4.66
2019-02-23T15:54:21.457Z,4.77
2019-02-23T15:56:49.974Z,4.77
2019-02-23T15:59:18.410Z,4.74
2019-02-23T16:01:47.342Z,4.55
2019-02-23T16:04:16.320Z,4.51
2019-02-23T16:06:44.880Z,4.58
2019-02-23T16:09:53.321Z,4.45
2019-02-23T16:12:21.907Z,4.40
2019-02-23T16:14:50.372Z,4.39
2019-02-23T16:17:19.195Z,4.33
2019-02-23T16:19:47.792Z,4.27
2019-02-23T16:22:18.724Z,4.21
2019-02-23T16:24:46.722Z,4.21
2019-02-23T16:27:15.244Z,4.21
2019-02-23T16:29:44.122Z,4.17
2019-02-23T16:32:12.690Z,4.21
2019-02-23T16:34:41.286Z,4.17
2019-02-23T16:37:09.863Z,4.17
2019-02-23T16:39:40.608Z,4.10
2019-02-23T16:42:08.839Z,4.07
2019-02-23T16:44:37.313Z,3.98
2019-02-23T16:47:06.026Z,3.96
2019-02-23T16:52:09.676Z,4.01
2019-02-23T16:54:38.276Z,3.96
2019-02-23T16:57:07.004Z,3.89
2019-02-23T16:59:35.517Z,3.80
2019-02-23T17:02:04.215Z,3.85
2019-02-23T17:04:32.656Z,3.83
2019-02-23T17:07:01.135Z,3.76
2019-02-23T17:09:29.739Z,3.73
2019-02-23T17:12:01.590Z,3.72
2019-02-23T17:14:40.676Z,3.66
2019-02-23T17:17:09.300Z,3.61
2019-02-23T17:19:37.871Z,3.60
2019-02-23T17:22:06.470Z,3.61
2019-02-23T17:24:54.623Z,3.55
2019-02-23T17:27:35.453Z,3.55
2019-02-23T17:29:54.157Z,3.51
2019-02-23T17:32:23.102Z,3.51
2019-02-23T17:34:51.839Z,3.43
2019-02-23T17:37:20.467Z,3.40
2019-02-23T17:39:49.066Z,3.43
2019-02-23T17:42:27.670Z,3.46
2019-02-23T17:44:47.978Z,3.42
2019-02-23T17:47:16.755Z,3.42
2019-02-23T17:49:45.405Z,3.38
2019-02-23T17:52:33.034Z,3.40
2019-02-23T17:55:01.605Z,3.39
2019-02-23T17:57:30.083Z,3.37
2019-02-23T17:59:58.709Z,3.40
2019-02-23T18:02:27.201Z,3.41
2019-02-23T18:04:55.651Z,3.39
2019-02-23T18:08:04.119Z,3.37
2019-02-23T18:10:33.118Z,3.33
2019-02-23T18:15:57.035Z,3.25
2019-02-23T18:18:25.580Z,3.21
2019-02-23T18:20:54.235Z,3.20
2019-02-23T18:23:22.829Z,3.20
2019-02-23T18:25:51.576Z,3.20
2019-02-23T18:28:20.245Z,3.21
2019-02-23T18:30:49.326Z,3.20
2019-02-23T18:33:18.120Z,3.21
2019-02-23T18:35:46.887Z,3.22
2019-02-23T18:38:15.653Z,3.18
2019-02-23T18:40:44.393Z,3.17
2019-02-23T18:43:13.085Z,3.19
2019-02-23T18:45:47.428Z,3.17
2019-02-23T18:48:12.169Z,3.15
2019-02-23T18:50:40.775Z,3.11
2019-02-23T18:53:09.577Z,3.11
2019-02-23T18:55:41.080Z,3.09
2019-02-23T18:58:08.659Z,3.08
2019-02-23T19:00:37.453Z,3.08
2019-02-23T19:03:06.156Z,3.06
2019-02-23T19:05:34.951Z,3.00
2019-02-23T19:08:03.434Z,2.99
2019-02-23T19:10:32.016Z,2.97
2019-02-23T19:13:00.678Z,3.04
2019-02-23T19:15:29.814Z,2.92
2019-02-23T19:17:58.513Z,2.87
2019-02-23T19:25:57.403Z,2.84
2019-02-23T19:28:26.293Z,2.83
2019-02-23T19:30:54.979Z,2.87
2019-02-23T19:33:23.929Z,2.80
2019-02-23T19:35:52.973Z,2.80
2019-02-23T19:38:21.579Z,2.77
2019-02-23T19:40:50.392Z,2.81
2019-02-23T19:46:31.133Z,2.86
2019-02-23T19:51:58.782Z,2.76
2019-02-23T19:57:17.315Z,2.74
2019-02-23T19:59:45.961Z,2.72
2019-02-23T20:02:54.756Z,2.73
2019-02-23T20:05:23.553Z,2.73
2019-02-23T20:07:52.816Z,2.75
2019-02-23T20:10:22.759Z,2.77
2019-02-23T20:12:51.859Z,2.77
2019-02-23T20:15:20.778Z,2.76
2019-02-23T20:17:49.292Z,2.74
2019-02-23T20:20:18.055Z,2.69
2019-02-23T20:22:46.702Z,2.68
2019-02-23T20:25:15.356Z,2.66
2019-02-23T20:27:43.998Z,2.69
2019-02-23T20:30:52.408Z,2.70
2019-02-23T20:33:20.961Z,2.69
2019-02-23T20:35:49.989Z,2.69
2019-02-23T20:38:18.361Z,2.69
2019-02-23T20:40:46.990Z,2.69
2019-02-23T20:43:34.884Z,2.68
2019-02-23T20:46:03.465Z,2.69
2019-02-23T20:48:31.930Z,2.73
2019-02-23T20:51:00.521Z,2.74
2019-02-23T20:53:29.015Z,2.76
2019-02-23T20:55:57.524Z,2.74
2019-02-23T20:58:27.408Z,2.75
2019-02-23T21:00:56.324Z,2.73
2019-02-23T21:03:24.832Z,2.73
2019-02-23T21:05:53.395Z,2.71
2019-02-23T21:08:22.783Z,2.71
2019-02-23T21:11:32.795Z,2.69
2019-02-23T21:14:01.268Z,2.68
2019-02-23T21:16:29.738Z,2.67
2019-02-23T21:18:58.246Z,2.67
2019-02-23T21:21:26.748Z,2.66
2019-02-23T21:23:55.348Z,2.65
2019-02-23T21:26:23.886Z,2.64
2019-02-23T21:28:52.308Z,2.63
2019-02-23T21:31:21.090Z,2.61
2019-02-23T21:33:49.549Z,2.62
2019-02-23T21:36:18.079Z,2.58
2019-02-23T21:38:46.540Z,2.58
2019-02-23T21:41:15.125Z,2.54
2019-02-23T21:43:43.595Z,2.55
2019-02-23T21:46:13.966Z,2.55
2019-02-23T21:48:43.029Z,2.54
2019-02-23T21:51:11.494Z,2.55
2019-02-23T21:53:39.974Z,2.55
2019-02-23T21:56:08.547Z,2.55
2019-02-23T21:58:37.076Z,2.56
2019-02-23T22:01:05.625Z,2.56
2019-02-23T22:03:34.337Z,2.54
2019-02-23T22:06:03.225Z,2.52
2019-02-23T22:08:31.768Z,2.51
2019-02-23T22:11:00.319Z,2.53
2019-02-23T22:13:28.833Z,2.50
2019-02-23T22:15:57.238Z,2.46
2019-02-23T22:18:25.742Z,2.46
2019-02-23T22:20:54.249Z,2.44
2019-02-23T22:23:22.955Z,2.40
2019-02-23T22:25:51.435Z,2.44
2019-02-23T22:28:19.932Z,2.43
2019-02-23T22:30:48.578Z,2.39
2019-02-23T22:33:17.453Z,2.37
2019-02-23T22:35:46.077Z,2.38
2019-02-23T22:38:14.686Z,2.31
2019-02-23T22:40:43.717Z,2.28
2019-02-23T22:43:12.262Z,2.25
2019-02-23T22:46:00.340Z,2.20
2019-02-23T22:48:28.787Z,2.20
2019-02-23T22:50:57.325Z,2.18
2019-02-23T22:53:25.849Z,2.22
2019-02-23T22:55:54.298Z,2.21
2019-02-23T22:58:22.839Z,2.20
2019-02-23T23:01:10.816Z,2.19
2019-02-23T23:03:39.477Z,2.20
2019-02-23T23:06:47.913Z,2.19
2019-02-23T23:09:35.482Z,2.18
2019-02-23T23:12:04.046Z,2.12
2019-02-23T23:14:52.576Z,2.07
2019-02-23T23:17:22.993Z,2.07
2019-02-23T23:19:51.560Z,2.08
2019-02-23T23:22:20.003Z,2.08
2019-02-23T23:24:48.857Z,2.08
2019-02-23T23:27:17.477Z,2.08
2019-02-23T23:29:45.947Z,2.02
2019-02-23T23:32:14.319Z,1.97
2019-02-23T23:34:42.785Z,1.93
2019-02-23T23:37:11.246Z,1.91
2019-02-23T23:39:39.704Z,1.96
2019-02-23T23:42:08.322Z,1.98
2019-02-23T23:44:36.702Z,1.94
2019-02-23T23:47:05.602Z,1.96
2019-02-23T23:49:34.496Z,1.98
2019-02-23T23:52:03.047Z,2.00
2019-02-23T23:54:31.582Z,2.02
2019-02-23T23:57:00.052Z,1.96
2019-02-23T23:59:28.551Z,1.96
